createdAt,value
2022-12-15T00:01:50.760Z,-6.33
2022-12-15T00:03:52.907Z,-6.33
2022-12-15T00:05:54.462Z,-6.3
2022-12-15T00:07:56.239Z,-6.27
2022-12-15T00:09:58.349Z,-6.21
2022-12-15T00:11:59.961Z,-6.16
2022-12-15T00:14:01.737Z,-6.06
2022-12-15T00:16:03.131Z,-5.97
2022-12-15T00:18:04.543Z,-5.92
2022-12-15T00:20:05.829Z,-5.98
2022-12-15T00:22:07.554Z,-6.06
2022-12-15T00:24:09.590Z,-5.96
2022-12-15T00:26:11.440Z,-5.85
2022-12-15T00:28:12.886Z,-5.88
2022-12-15T00:30:14.568Z,-5.84
2022-12-15T00:32:16.146Z,-5.83
2022-12-15T00:34:17.550Z,-5.8
2022-12-15T00:36:19.619Z,-5.8
2022-12-15T00:38:21.498Z,-5.86
2022-12-15T00:40:23.593Z,-5.91
2022-12-15T00:44:26.746Z,-5.78
2022-12-15T00:46:27.955Z,-5.77
2022-12-15T00:48:29.419Z,-5.7
2022-12-15T00:50:30.834Z,-5.64
2022-12-15T00:52:32.451Z,-5.63
2022-12-15T00:54:34.473Z,-5.62
2022-12-15T00:56:36.083Z,-5.62
2022-12-15T00:58:38.060Z,-5.83
2022-12-15T01:00:40.078Z,-5.87
2022-12-15T01:02:41.943Z,-5.94
2022-12-15T01:04:43.394Z,-5.87
2022-12-15T01:06:44.559Z,-5.78
2022-12-15T01:08:45.859Z,-5.65
2022-12-15T01:10:47.157Z,-5.55
2022-12-15T01:12:49.175Z,-5.5
2022-12-15T01:14:50.930Z,-5.47
2022-12-15T01:16:52.308Z,-5.38
2022-12-15T01:18:53.852Z,-5.55
2022-12-15T01:20:55.670Z,-5.83
2022-12-15T01:22:57.663Z,-5.84
2022-12-15T01:24:58.861Z,-5.77
2022-12-15T01:27:00.205Z,-5.71
2022-12-15T01:29:01.870Z,-5.69
2022-12-15T01:31:03.174Z,-5.67
2022-12-15T01:33:04.681Z,-5.65
2022-12-15T01:35:06.084Z,-5.6
2022-12-15T01:37:08.215Z,-5.57
2022-12-15T01:39:10.350Z,-5.56
2022-12-15T01:41:11.758Z,-5.51
2022-12-15T01:43:13.709Z,-5.48
2022-12-15T01:45:14.941Z,-5.45
2022-12-15T01:47:16.774Z,-5.46
2022-12-15T01:49:18.001Z,-5.55
2022-12-15T01:51:19.248Z,-5.57
2022-12-15T01:53:21.142Z,-5.57
2022-12-15T01:55:22.925Z,-5.53
2022-12-15T01:57:24.966Z,-5.54
2022-12-15T01:59:27.005Z,-5.47
2022-12-15T02:01:28.496Z,-5.46
2022-12-15T02:03:30.672Z,-5.43
2022-12-15T02:05:31.952Z,-5.4
2022-12-15T02:07:33.240Z,-5.39
2022-12-15T02:09:35.329Z,-5.34
2022-12-15T02:11:37.179Z,-5.34
2022-12-15T02:13:38.791Z,-5.29
2022-12-15T02:15:40.131Z,-5.27
2022-12-15T02:17:41.293Z,-5.27
2022-12-15T02:19:42.571Z,-5.29
2022-12-15T02:21:44.293Z,-5.27
2022-12-15T02:23:45.648Z,-5.29
2022-12-15T02:25:46.791Z,-5.3
2022-12-15T02:27:47.957Z,-5.35
2022-12-15T02:29:49.184Z,-5.46
2022-12-15T02:31:51.250Z,-5.46
2022-12-15T02:33:52.322Z,-5.46
2022-12-15T02:35:54.228Z,-5.47
2022-12-15T02:37:55.625Z,-5.48
2022-12-15T02:39:57.215Z,-5.5
2022-12-15T02:41:58.625Z,-5.48
2022-12-15T02:44:00.218Z,-5.46
2022-12-15T02:46:02.021Z,-5.46
2022-12-15T02:48:03.694Z,-5.5
2022-12-15T02:50:05.457Z,-5.52
2022-12-15T02:52:07.101Z,-5.5
2022-12-15T02:54:08.344Z,-5.54
2022-12-15T02:56:09.484Z,-5.56
2022-12-15T02:58:11.244Z,-5.54
2022-12-15T03:00:12.966Z,-5.54
2022-12-15T03:02:14.696Z,-5.54
2022-12-15T03:04:16.471Z,-5.57
2022-12-15T03:06:18.569Z,-5.62
2022-12-15T03:08:20.154Z,-5.51
2022-12-15T03:10:22.026Z,-5.62
2022-12-15T03:12:23.199Z,-5.68
2022-12-15T03:14:24.760Z,-5.73
2022-12-15T03:16:26.132Z,-5.75
2022-12-15T03:18:27.585Z,-5.77
2022-12-15T03:20:28.882Z,-5.74
2022-12-15T03:22:30.495Z,-5.73
2022-12-15T03:24:32.091Z,-5.59
2022-12-15T03:26:34.046Z,-5.47
2022-12-15T03:28:35.695Z,-5.45
2022-12-15T03:30:36.946Z,-5.45
2022-12-15T03:32:39.007Z,-5.46
2022-12-15T03:34:41.052Z,-5.51
2022-12-15T03:36:42.354Z,-5.5
2022-12-15T03:38:43.570Z,-5.47
2022-12-15T03:40:45.612Z,-5.44
2022-12-15T03:43:31.185Z,-5.4
2022-12-15T03:45:32.734Z,-5.38
2022-12-15T03:47:34.331Z,-5.37
2022-12-15T03:49:35.664Z,-5.33
2022-12-15T03:51:37.354Z,-5.29
2022-12-15T03:53:38.792Z,-5.27
2022-12-15T03:55:40.076Z,-5.23
2022-12-15T03:57:41.410Z,-5.22
2022-12-15T03:59:43.158Z,-5.18
2022-12-15T04:01:44.874Z,-5.19
2022-12-15T04:03:46.087Z,-5.14
2022-12-15T04:05:47.778Z,-5.17
2022-12-15T04:07:49.164Z,-5.2
2022-12-15T04:09:50.558Z,-5.25
2022-12-15T04:11:52.641Z,-5.32
2022-12-15T04:13:53.856Z,-5.34
2022-12-15T04:15:55.075Z,-5.31
2022-12-15T04:17:57.129Z,-5.24
2022-12-15T04:19:58.906Z,-5.25
2022-12-15T04:22:00.102Z,-5.2
2022-12-15T04:24:01.304Z,-5.19
2022-12-15T04:28:04.648Z,-5.14
2022-12-15T04:30:06.412Z,-5.17
2022-12-15T04:32:07.744Z,-5.28
2022-12-15T04:34:09.021Z,-5.32
2022-12-15T04:36:10.150Z,-5.34
2022-12-15T04:38:11.572Z,-5.3
2022-12-15T04:40:13.531Z,-5.3
2022-12-15T04:42:15.399Z,-5.28
2022-12-15T04:44:16.734Z,-5.27
2022-12-15T04:46:18.189Z,-5.29
2022-12-15T04:48:19.709Z,-5.27
2022-12-15T04:50:21.254Z,-5.23
2022-12-15T04:52:22.505Z,-5.2
2022-12-15T04:54:24.066Z,-5.19
2022-12-15T04:56:25.583Z,-5.19
2022-12-15T04:58:27.384Z,-5.16
2022-12-15T05:00:29.080Z,-5.24
2022-12-15T05:02:30.873Z,-5.23
2022-12-15T05:04:32.046Z,-5.21
2022-12-15T05:06:34.014Z,-5.2
2022-12-15T05:10:37.600Z,-5.21
2022-12-15T05:12:39.045Z,-5.21
2022-12-15T05:14:40.470Z,-5.21
2022-12-15T05:16:41.763Z,-5.17
2022-12-15T05:18:43.747Z,-5.19
2022-12-15T05:20:44.946Z,-5.2
2022-12-15T05:22:46.633Z,-5.2
2022-12-15T05:24:48.633Z,-5.17
2022-12-15T05:26:52.520Z,-5.12
2022-12-15T05:28:52.100Z,-5.1
2022-12-15T05:30:53.522Z,-5.05
2022-12-15T05:32:55.389Z,-5.08
2022-12-15T05:34:57.105Z,-5.12
2022-12-15T05:36:58.828Z,-5.2
2022-12-15T05:39:00.027Z,-5.24
2022-12-15T05:41:02.070Z,-5.26
2022-12-15T05:43:03.821Z,-5.25
2022-12-15T05:45:05.201Z,-5.22
2022-12-15T05:47:06.894Z,-5.22
2022-12-15T05:49:08.177Z,-5.26
2022-12-15T05:51:10.236Z,-5.21
2022-12-15T05:53:12.126Z,-5.22
2022-12-15T05:55:13.682Z,-5.21
2022-12-15T05:57:15.449Z,-5.23
2022-12-15T05:59:17.170Z,-5.22
2022-12-15T06:01:18.693Z,-5.24
2022-12-15T06:03:20.076Z,-5.21
2022-12-15T06:05:21.585Z,-5.21
2022-12-15T06:07:23.124Z,-5.2
2022-12-15T06:09:24.771Z,-5.21
2022-12-15T06:11:26.389Z,-5.22
2022-12-15T06:13:28.556Z,-5.23
2022-12-15T06:15:29.604Z,-5.21
2022-12-15T06:17:31.277Z,-5.18
2022-12-15T06:19:33.175Z,-5.2
2022-12-15T06:21:34.806Z,-5.24
2022-12-15T06:23:36.507Z,-5.26
2022-12-15T06:25:38.304Z,-5.32
2022-12-15T06:27:39.777Z,-5.33
2022-12-15T06:29:41.144Z,-5.36
2022-12-15T06:31:43.345Z,-5.37
2022-12-15T06:35:45.769Z,-5.36
2022-12-15T06:37:46.905Z,-5.4
2022-12-15T06:39:48.284Z,-5.46
2022-12-15T06:41:49.615Z,-5.36
2022-12-15T06:43:51.455Z,-5.4
2022-12-15T06:45:52.620Z,-5.5
2022-12-15T07:00:05.342Z,-5.96
2022-12-15T07:08:11.759Z,-5.95
2022-12-15T07:10:13.614Z,-5.98
2022-12-15T07:20:24.160Z,-6.19
2022-12-15T07:36:34.797Z,-6.01
2022-12-15T07:38:36.545Z,-6.16
2022-12-15T07:44:40.625Z,-6.33
2022-12-15T07:46:42.029Z,-6.35
2022-12-15T07:52:46.519Z,-6.58
2022-12-15T08:19:07.093Z,-6.82
2022-12-15T09:54:25.649Z,-2.55
2022-12-15T10:02:30.736Z,-2.68
2022-12-15T10:27:31.542Z,-2.26
2022-12-15T10:37:38.069Z,-2.15
2022-12-15T10:59:56.329Z,-1.39
2022-12-15T11:03:59.808Z,-1.24
2022-12-15T11:12:05.053Z,-0.94
2022-12-15T11:18:10.541Z,-1.43
2022-12-15T11:30:20.957Z,-2.07
2022-12-15T11:34:23.725Z,-2.06
2022-12-15T11:44:32.350Z,-2.32
2022-12-15T11:46:35.100Z,-2.21
2022-12-15T12:00:47.502Z,-2.39
2022-12-15T12:06:53.797Z,-2.58
2022-12-15T12:10:57.638Z,-2.76
2022-12-15T12:19:05.097Z,-2.92
2022-12-15T12:29:11.159Z,-3.15
2022-12-15T12:41:22.058Z,-3.13
2022-12-15T12:51:30.754Z,-3.35
2022-12-15T12:53:32.804Z,-3.31
2022-12-15T13:07:42.768Z,-3.4
2022-12-15T13:21:53.911Z,-3.26
2022-12-15T13:23:55.735Z,-3.3
2022-12-15T13:25:57.697Z,-3.28
2022-12-15T13:27:58.942Z,-3.32
2022-12-15T13:30:00.307Z,-3.28
2022-12-15T13:32:01.973Z,-3.27
2022-12-15T13:34:03.933Z,-3.26
2022-12-15T13:36:05.549Z,-3.22
2022-12-15T13:38:06.835Z,-3.24
2022-12-15T13:40:07.964Z,-3.21
2022-12-15T13:42:32.981Z,-3.22
2022-12-15T13:44:11.162Z,-3.29
2022-12-15T13:46:12.430Z,-3.21
2022-12-15T13:48:14.148Z,-3.24
2022-12-15T13:50:15.440Z,-3.26
2022-12-15T13:52:16.867Z,-3.26
2022-12-15T13:54:18.386Z,-3.3
2022-12-15T13:56:19.749Z,-3.3
2022-12-15T13:58:21.449Z,-3.3
2022-12-15T14:00:23.228Z,-3.24
2022-12-15T14:02:24.536Z,-3.21
2022-12-15T14:04:26.530Z,-3.22
2022-12-15T14:06:28.467Z,-3.23
2022-12-15T14:08:29.834Z,-3.22
2022-12-15T14:10:31.811Z,-3.24
2022-12-15T14:12:33.625Z,-3.28
2022-12-15T14:14:35.558Z,-3.33
2022-12-15T14:16:36.617Z,-3.31
2022-12-15T14:18:38.526Z,-3.43
2022-12-15T14:20:40.226Z,-3.48
2022-12-15T14:22:41.671Z,-3.54
2022-12-15T14:24:42.957Z,-3.65
2022-12-15T14:26:44.308Z,-3.67
2022-12-15T14:28:45.733Z,-3.71
2022-12-15T14:30:47.157Z,-3.86
2022-12-15T14:32:48.485Z,-3.88
2022-12-15T14:34:50.524Z,-3.91
2022-12-15T14:36:51.746Z,-3.95
2022-12-15T14:38:52.982Z,-3.98
2022-12-15T14:40:54.545Z,-4
2022-12-15T14:42:55.805Z,-4.03
2022-12-15T14:44:58.289Z,-4.03
2022-12-15T14:46:59.412Z,-4.04
2022-12-15T14:49:02.986Z,-4.02
2022-12-15T14:51:02.812Z,-4.11
2022-12-15T14:53:04.468Z,-4.14
2022-12-15T14:55:06.352Z,-4.2
2022-12-15T14:57:08.359Z,-4.26
2022-12-15T14:59:10.127Z,-4.28
2022-12-15T15:01:12.034Z,-4.29
2022-12-15T15:03:17.711Z,-4.41
2022-12-15T15:05:15.419Z,-4.36
2022-12-15T15:07:17.036Z,-4.41
2022-12-15T15:09:18.117Z,-4.47
2022-12-15T15:11:20.199Z,-4.49
2022-12-15T15:13:22.298Z,-4.56
2022-12-15T15:15:24.183Z,-4.63
2022-12-15T15:17:25.707Z,-4.58
2022-12-15T15:19:27.189Z,-4.65
2022-12-15T15:21:28.371Z,-4.72
2022-12-15T15:23:30.056Z,-4.74
2022-12-15T15:25:33.704Z,-4.73
2022-12-15T15:27:33.077Z,-4.81
2022-12-15T15:29:34.893Z,-4.76
2022-12-15T15:31:41.184Z,-4.72
2022-12-15T15:33:38.541Z,-4.73
2022-12-15T15:35:40.154Z,-4.76
2022-12-15T15:37:42.099Z,-4.56
2022-12-15T15:39:43.729Z,-4.5
2022-12-15T15:41:45.133Z,-4.47
2022-12-15T15:43:46.534Z,-4.53
2022-12-15T15:45:48.426Z,-4.59
2022-12-15T15:47:49.690Z,-4.66
2022-12-15T15:49:51.546Z,-4.69
2022-12-15T15:51:53.409Z,-4.77
2022-12-15T15:53:55.491Z,-4.75
2022-12-15T15:55:56.872Z,-4.79
2022-12-15T15:57:58.324Z,-4.77
2022-12-15T15:59:59.907Z,-4.71
2022-12-15T16:02:01.227Z,-4.66
2022-12-15T16:04:03.186Z,-4.68
2022-12-15T16:06:04.385Z,-4.69
2022-12-15T16:08:05.620Z,-4.6
2022-12-15T16:10:07.310Z,-4.61
2022-12-15T16:12:09.044Z,-4.53
2022-12-15T16:14:10.269Z,-4.49
2022-12-15T16:16:11.736Z,-4.47
2022-12-15T16:18:13.043Z,-4.49
2022-12-15T16:20:14.278Z,-4.51
2022-12-15T16:22:15.577Z,-4.55
2022-12-15T16:24:17.459Z,-4.58
2022-12-15T16:26:19.085Z,-4.61
2022-12-15T16:28:21.130Z,-4.58
2022-12-15T16:30:22.293Z,-4.55
2022-12-15T16:32:23.560Z,-4.57
2022-12-15T16:34:25.190Z,-4.61
2022-12-15T16:36:26.548Z,-4.57
2022-12-15T16:38:28.062Z,-4.59
2022-12-15T16:40:29.707Z,-4.57
2022-12-15T16:42:31.100Z,-4.58
2022-12-15T16:44:32.337Z,-4.61
2022-12-15T16:46:33.917Z,-4.61
2022-12-15T16:48:35.558Z,-4.63
2022-12-15T16:50:36.678Z,-4.65
2022-12-15T16:52:38.464Z,-4.64
2022-12-15T16:54:39.828Z,-4.63
2022-12-15T16:56:41.429Z,-4.68
2022-12-15T16:58:48.461Z,-4.66
2022-12-15T17:00:44.358Z,-4.68
2022-12-15T17:02:46.105Z,-4.69
2022-12-15T17:04:47.200Z,-4.68
2022-12-15T17:06:48.567Z,-4.57
2022-12-15T17:08:50.599Z,-4.58
2022-12-15T17:10:52.221Z,-4.59
2022-12-15T17:12:54.171Z,-4.65
2022-12-15T17:15:39.768Z,-4.61
2022-12-15T17:17:40.881Z,-4.62
2022-12-15T17:19:52.702Z,-4.67
2022-12-15T17:21:44.391Z,-4.68
2022-12-15T17:23:45.695Z,-4.64
2022-12-15T17:26:18.455Z,-4.65
2022-12-15T17:27:48.964Z,-4.68
2022-12-15T17:29:50.582Z,-4.75
2022-12-15T17:31:51.816Z,-4.73
2022-12-15T17:33:53.325Z,-4.65
2022-12-15T17:35:54.827Z,-4.77
2022-12-15T17:37:56.360Z,-4.8
2022-12-15T17:39:58.037Z,-4.81
2022-12-15T17:42:01.331Z,-4.85
2022-12-15T17:46:02.854Z,-4.93
2022-12-15T17:48:03.993Z,-4.92
2022-12-15T17:50:05.657Z,-4.9
2022-12-15T17:52:07.315Z,-4.77
2022-12-15T17:54:09.436Z,-4.87
2022-12-15T17:56:10.679Z,-4.84
2022-12-15T17:58:12.429Z,-4.91
2022-12-15T18:00:14.045Z,-4.77
2022-12-15T18:02:15.672Z,-4.74
2022-12-15T18:04:17.350Z,-4.71
2022-12-15T18:06:18.471Z,-4.8
2022-12-15T18:08:19.975Z,-4.83
2022-12-15T18:10:21.688Z,-4.85
2022-12-15T18:12:23.157Z,-4.96
2022-12-15T18:14:24.303Z,-5.06
2022-12-15T18:16:25.546Z,-5.01
2022-12-15T18:18:27.219Z,-4.67
2022-12-15T18:20:28.477Z,-4.71
2022-12-15T18:22:29.928Z,-4.84
2022-12-15T18:24:31.633Z,-4.8
2022-12-15T18:26:32.884Z,-4.74
2022-12-15T18:28:34.535Z,-4.77
2022-12-15T18:30:36.343Z,-4.72
2022-12-15T18:34:39.359Z,-4.63
2022-12-15T18:36:41.250Z,-4.69
2022-12-15T18:38:43.112Z,-4.81
2022-12-15T18:40:45.250Z,-4.9
2022-12-15T18:42:46.955Z,-4.97
2022-12-15T18:44:48.124Z,-5
2022-12-15T18:46:49.958Z,-4.99
2022-12-15T18:48:51.465Z,-5.04
2022-12-15T18:50:52.607Z,-5.04
2022-12-15T18:52:53.929Z,-5.03
2022-12-15T18:54:55.434Z,-5.02
2022-12-15T18:56:56.645Z,-5.05
2022-12-15T18:58:57.806Z,-5
2022-12-15T19:00:59.573Z,-5.05
2022-12-15T19:03:01.624Z,-5.11
2022-12-15T19:05:02.740Z,-5.12
2022-12-15T19:07:04.131Z,-5.14
2022-12-15T19:09:05.738Z,-5.11
2022-12-15T19:13:08.673Z,-5.15
2022-12-15T19:15:10.287Z,-5.19
2022-12-15T19:17:11.825Z,-5.03
2022-12-15T19:19:17.160Z,-5.08
2022-12-15T19:21:15.117Z,-5.05
2022-12-15T19:23:16.941Z,-5.05
2022-12-15T19:25:20.537Z,-5.07
2022-12-15T19:27:19.648Z,-5.12
2022-12-15T19:29:21.392Z,-5.16
2022-12-15T19:31:22.998Z,-5.16
2022-12-15T19:33:24.470Z,-5.14
2022-12-15T19:35:25.740Z,-5.12
2022-12-15T19:37:27.743Z,-5.12
2022-12-15T19:39:29.765Z,-5.04
2022-12-15T19:41:31.737Z,-4.99
2022-12-15T19:43:34.123Z,-5
2022-12-15T19:45:35.311Z,-5.01
2022-12-15T19:47:36.812Z,-4.92
2022-12-15T19:49:38.608Z,-4.96
2022-12-15T19:51:39.770Z,-4.92
2022-12-15T19:53:41.861Z,-4.95
2022-12-15T19:55:43.494Z,-4.93
2022-12-15T19:57:45.571Z,-4.92
2022-12-15T19:59:46.908Z,-4.91
2022-12-15T20:01:48.659Z,-4.81
2022-12-15T20:03:50.171Z,-4.85
2022-12-15T20:05:51.960Z,-4.94
2022-12-15T20:07:53.493Z,-4.97
2022-12-15T20:09:55.401Z,-5.07
2022-12-15T20:11:56.567Z,-5.08
2022-12-15T20:13:58.528Z,-5.12
2022-12-15T20:16:00.415Z,-5.18
2022-12-15T20:18:01.799Z,-5.21
2022-12-15T20:20:03.147Z,-5.23
2022-12-15T20:22:04.443Z,-5.28
2022-12-15T20:24:06.138Z,-5.27
2022-12-15T20:26:07.986Z,-5.28
2022-12-15T20:28:09.361Z,-5.25
2022-12-15T20:30:10.466Z,-5.26
2022-12-15T20:32:12.193Z,-5.24
2022-12-15T20:34:13.772Z,-5.3
2022-12-15T20:36:15.805Z,-5.3
2022-12-15T20:38:17.562Z,-5.32
2022-12-15T20:40:19.293Z,-5.34
2022-12-15T20:42:20.782Z,-5.35
2022-12-15T20:44:22.884Z,-5.4
2022-12-15T20:46:24.962Z,-5.4
2022-12-15T20:48:26.751Z,-5.4
2022-12-15T20:50:28.087Z,-5.35
2022-12-15T20:52:29.676Z,-5.29
2022-12-15T20:54:31.053Z,-5.38
2022-12-15T20:56:32.568Z,-5.28
2022-12-15T20:58:40.928Z,-5.28
2022-12-15T21:00:35.737Z,-5.27
2022-12-15T21:02:37.266Z,-5.25
2022-12-15T21:04:38.724Z,-5.19
2022-12-15T21:06:42.899Z,-5.15
2022-12-15T21:08:41.993Z,-5.1
2022-12-15T21:10:43.850Z,-5.1
2022-12-15T21:12:45.277Z,-5.06
2022-12-15T21:14:46.495Z,-4.94
2022-12-15T21:16:47.886Z,-4.95
2022-12-15T21:19:18.431Z,-4.84
2022-12-15T21:20:50.998Z,-4.92
2022-12-15T21:22:52.545Z,-4.98
2022-12-15T21:24:54.614Z,-4.95
2022-12-15T21:26:56.332Z,-4.95
2022-12-15T21:28:58.363Z,-4.92
2022-12-15T21:31:00.445Z,-4.93
2022-12-15T21:33:01.665Z,-4.86
2022-12-15T21:35:03.217Z,-4.8
2022-12-15T21:37:04.456Z,-4.77
2022-12-15T21:39:06.264Z,-4.74
2022-12-15T21:41:07.426Z,-4.72
2022-12-15T21:43:09.016Z,-4.7
2022-12-15T21:45:10.323Z,-4.73
2022-12-15T21:47:11.550Z,-4.73
2022-12-15T21:49:13.336Z,-4.68
2022-12-15T21:51:14.674Z,-4.68
2022-12-15T21:53:16.348Z,-4.68
2022-12-15T21:55:18.202Z,-4.67
2022-12-15T21:57:19.419Z,-4.64
2022-12-15T21:59:21.047Z,-4.62
2022-12-15T22:01:23.304Z,-4.6
2022-12-15T22:03:24.783Z,-4.48
2022-12-15T22:05:26.256Z,-4.52
2022-12-15T22:07:28.130Z,-4.61
2022-12-15T22:09:29.272Z,-4.7
2022-12-15T22:11:30.505Z,-4.69
2022-12-15T22:13:32.268Z,-4.66
2022-12-15T22:15:33.783Z,-4.67
2022-12-15T22:17:35.411Z,-4.69
2022-12-15T22:19:37.218Z,-4.72
2022-12-15T22:21:38.682Z,-4.72
2022-12-15T22:23:40.167Z,-4.72
2022-12-15T22:25:42.174Z,-4.71
2022-12-15T22:27:44.158Z,-4.56
2022-12-15T22:29:45.590Z,-4.44
2022-12-15T22:31:47.093Z,-4.4
2022-12-15T22:33:49.047Z,-4.39
2022-12-15T22:35:50.813Z,-4.45
2022-12-15T22:37:52.159Z,-4.48
2022-12-15T22:39:53.503Z,-4.49
2022-12-15T22:41:54.733Z,-4.46
2022-12-15T22:43:55.871Z,-4.47
2022-12-15T22:45:56.962Z,-4.48
2022-12-15T22:47:58.510Z,-4.48
2022-12-15T22:50:00.032Z,-4.45
2022-12-15T22:52:01.517Z,-4.42
2022-12-15T22:54:03.333Z,-4.36
2022-12-15T22:56:04.676Z,-4.27
2022-12-15T22:58:05.922Z,-4.18
2022-12-15T23:00:07.444Z,-4.1
2022-12-15T23:02:08.833Z,-4.1
2022-12-15T23:04:10.557Z,-4.1
2022-12-15T23:06:12.300Z,-4.12
2022-12-15T23:08:13.778Z,-4.13
2022-12-15T23:10:15.304Z,-4.14
2022-12-15T23:12:16.661Z,-4.15
2022-12-15T23:14:18.713Z,-4.17
2022-12-15T23:16:20.252Z,-4.11
2022-12-15T23:18:22.231Z,-4.12
2022-12-15T23:20:23.575Z,-4.17
2022-12-15T23:22:25.344Z,-4.14
2022-12-15T23:24:26.774Z,-4.13
2022-12-15T23:26:28.324Z,-4.12
2022-12-15T23:28:30.373Z,-4.1
2022-12-15T23:30:32.208Z,-4.09
2022-12-15T23:32:33.844Z,-4.04
2022-12-15T23:34:35.444Z,-4.03
2022-12-15T23:36:36.841Z,-3.98
2022-12-15T23:38:38.502Z,-3.98
2022-12-15T23:40:40.043Z,-3.93
2022-12-15T23:42:41.996Z,-3.96
2022-12-15T23:44:43.804Z,-3.94
2022-12-15T23:46:45.090Z,-3.9
2022-12-15T23:48:46.219Z,-3.95
2022-12-15T23:50:47.352Z,-3.94
2022-12-15T23:52:51.396Z,-3.95
2022-12-15T23:54:50.221Z,-3.93
2022-12-15T23:56:51.395Z,-3.85
2022-12-15T23:58:52.573Z,-3.8
2022-12-15T23:59:36.552Z,-3.76
